sensor_id;sensor_type;location;lat;lon;timestamp;P1;durP1;ratioP1;P2;durP2;ratioP2
9773;SDS011;4926;42.670;23.316;2023-02-14T00:01:21;25.58;;;16.02;;
9773;SDS011;4926;42.670;23.316;2023-02-14T00:03:52;22.30;;;14.55;;
9773;SDS011;4926;42.670;23.316;2023-02-14T00:06:18;21.15;;;14.32;;
9773;SDS011;4926;42.670;23.316;2023-02-14T00:08:46;20.33;;;14.60;;
9773;SDS011;4926;42.670;23.316;2023-02-14T00:11:14;20.73;;;14.63;;
9773;SDS011;4926;42.670;23.316;2023-02-14T00:13:44;24.08;;;14.68;;
9773;SDS011;4926;42.670;23.316;2023-02-14T00:16:27;21.58;;;14.48;;
9773;SDS011;4926;42.670;23.316;2023-02-14T00:18:55;24.35;;;15.20;;
9773;SDS011;4926;42.670;23.316;2023-02-14T00:21:35;21.10;;;14.10;;
9773;SDS011;4926;42.670;23.316;2023-02-14T00:24:03;24.23;;;16.17;;
9773;SDS011;4926;42.670;23.316;2023-02-14T00:26:43;22.30;;;15.82;;
9773;SDS011;4926;42.670;23.316;2023-02-14T00:29:14;21.95;;;15.07;;
9773;SDS011;4926;42.670;23.316;2023-02-14T00:31:42;20.58;;;13.38;;
9773;SDS011;4926;42.670;23.316;2023-02-14T00:34:12;25.60;;;16.00;;
9773;SDS011;4926;42.670;23.316;2023-02-14T00:36:40;22.20;;;15.20;;
9773;SDS011;4926;42.670;23.316;2023-02-14T00:39:07;22.15;;;15.57;;
9773;SDS011;4926;42.670;23.316;2023-02-14T00:41:36;22.77;;;16.10;;
9773;SDS011;4926;42.670;23.316;2023-02-14T00:44:05;24.73;;;15.65;;
9773;SDS011;4926;42.670;23.316;2023-02-14T00:46:34;22.88;;;15.95;;
9773;SDS011;4926;42.670;23.316;2023-02-14T00:49:01;25.10;;;16.55;;
9773;SDS011;4926;42.670;23.316;2023-02-14T00:51:29;24.38;;;16.15;;
9773;SDS011;4926;42.670;23.316;2023-02-14T00:53:55;24.10;;;15.40;;
9773;SDS011;4926;42.670;23.316;2023-02-14T00:56:24;21.00;;;15.48;;
9773;SDS011;4926;42.670;23.316;2023-02-14T00:58:51;22.58;;;15.85;;
9773;SDS011;4926;42.670;23.316;2023-02-14T01:01:18;22.77;;;15.23;;
9773;SDS011;4926;42.670;23.316;2023-02-14T01:03:45;23.25;;;16.45;;
9773;SDS011;4926;42.670;23.316;2023-02-14T01:06:12;23.70;;;17.17;;
9773;SDS011;4926;42.670;23.316;2023-02-14T01:08:43;23.20;;;16.08;;
9773;SDS011;4926;42.670;23.316;2023-02-14T01:11:14;20.65;;;15.40;;
9773;SDS011;4926;42.670;23.316;2023-02-14T01:13:42;22.38;;;15.30;;
9773;SDS011;4926;42.670;23.316;2023-02-14T01:16:10;22.38;;;14.63;;
9773;SDS011;4926;42.670;23.316;2023-02-14T01:18:39;24.73;;;16.20;;
9773;SDS011;4926;42.670;23.316;2023-02-14T01:21:10;25.85;;;16.90;;
9773;SDS011;4926;42.670;23.316;2023-02-14T01:23:37;22.10;;;16.38;;
9773;SDS011;4926;42.670;23.316;2023-02-14T01:26:06;22.77;;;16.25;;
9773;SDS011;4926;42.670;23.316;2023-02-14T01:28:39;25.15;;;17.45;;
9773;SDS011;4926;42.670;23.316;2023-02-14T01:31:08;23.38;;;16.92;;
9773;SDS011;4926;42.670;23.316;2023-02-14T01:33:36;22.23;;;16.40;;
9773;SDS011;4926;42.670;23.316;2023-02-14T01:36:04;28.17;;;17.30;;
9773;SDS011;4926;42.670;23.316;2023-02-14T01:38:39;25.27;;;16.20;;
9773;SDS011;4926;42.670;23.316;2023-02-14T01:41:07;26.35;;;16.75;;
9773;SDS011;4926;42.670;23.316;2023-02-14T01:43:47;25.25;;;16.90;;
9773;SDS011;4926;42.670;23.316;2023-02-14T01:46:15;24.15;;;16.88;;
9773;SDS011;4926;42.670;23.316;2023-02-14T01:48:42;23.95;;;17.02;;
9773;SDS011;4926;42.670;23.316;2023-02-14T01:51:09;21.92;;;15.23;;
9773;SDS011;4926;42.670;23.316;2023-02-14T01:53:35;22.95;;;15.45;;
9773;SDS011;4926;42.670;23.316;2023-02-14T01:56:03;23.85;;;16.23;;
9773;SDS011;4926;42.670;23.316;2023-02-14T01:58:34;26.10;;;15.73;;
9773;SDS011;4926;42.670;23.316;2023-02-14T02:01:05;23.33;;;16.33;;
9773;SDS011;4926;42.670;23.316;2023-02-14T02:03:33;25.52;;;16.80;;
9773;SDS011;4926;42.670;23.316;2023-02-14T02:06:04;25.13;;;17.42;;
9773;SDS011;4926;42.670;23.316;2023-02-14T02:08:36;26.83;;;18.00;;
9773;SDS011;4926;42.670;23.316;2023-02-14T02:11:12;24.77;;;15.98;;
9773;SDS011;4926;42.670;23.316;2023-02-14T02:13:41;22.38;;;16.25;;
9773;SDS011;4926;42.670;23.316;2023-02-14T02:16:20;24.35;;;17.23;;
9773;SDS011;4926;42.670;23.316;2023-02-14T02:19:01;23.85;;;17.30;;
9773;SDS011;4926;42.670;23.316;2023-02-14T02:22:00;24.83;;;17.13;;
9773;SDS011;4926;42.670;23.316;2023-02-14T02:24:39;25.05;;;17.45;;
9773;SDS011;4926;42.670;23.316;2023-02-14T02:27:19;24.65;;;17.35;;
9773;SDS011;4926;42.670;23.316;2023-02-14T02:33:28;26.88;;;17.83;;
9773;SDS011;4926;42.670;23.316;2023-02-14T02:39:21;23.67;;;17.45;;
9773;SDS011;4926;42.670;23.316;2023-02-14T02:42:02;23.90;;;17.33;;
9773;SDS011;4926;42.670;23.316;2023-02-14T02:44:43;27.80;;;17.10;;
9773;SDS011;4926;42.670;23.316;2023-02-14T02:47:22;24.70;;;17.27;;
9773;SDS011;4926;42.670;23.316;2023-02-14T02:49:57;24.58;;;16.63;;
9773;SDS011;4926;42.670;23.316;2023-02-14T02:52:50;24.17;;;16.52;;
9773;SDS011;4926;42.670;23.316;2023-02-14T02:55:40;24.20;;;16.83;;
9773;SDS011;4926;42.670;23.316;2023-02-14T02:58:28;24.08;;;15.63;;
9773;SDS011;4926;42.670;23.316;2023-02-14T03:00:58;25.30;;;16.63;;
9773;SDS011;4926;42.670;23.316;2023-02-14T03:03:28;23.27;;;15.13;;
9773;SDS011;4926;42.670;23.316;2023-02-14T03:06:15;25.15;;;15.75;;
9773;SDS011;4926;42.670;23.316;2023-02-14T03:08:44;24.27;;;15.80;;
9773;SDS011;4926;42.670;23.316;2023-02-14T03:11:11;23.42;;;15.23;;
9773;SDS011;4926;42.670;23.316;2023-02-14T03:13:42;24.50;;;16.88;;
9773;SDS011;4926;42.670;23.316;2023-02-14T03:16:30;22.60;;;16.08;;
9773;SDS011;4926;42.670;23.316;2023-02-14T03:21:55;23.42;;;16.25;;
9773;SDS011;4926;42.670;23.316;2023-02-14T03:24:29;23.27;;;16.40;;
9773;SDS011;4926;42.670;23.316;2023-02-14T03:27:03;22.13;;;14.90;;
9773;SDS011;4926;42.670;23.316;2023-02-14T03:29:40;22.40;;;14.88;;
9773;SDS011;4926;42.670;23.316;2023-02-14T03:32:20;22.50;;;15.57;;
9773;SDS011;4926;42.670;23.316;2023-02-14T03:34:59;22.25;;;14.52;;
9773;SDS011;4926;42.670;23.316;2023-02-14T03:37:33;22.40;;;14.18;;
9773;SDS011;4926;42.670;23.316;2023-02-14T03:40:08;21.70;;;13.70;;
9773;SDS011;4926;42.670;23.316;2023-02-14T03:42:45;23.35;;;14.73;;
9773;SDS011;4926;42.670;23.316;2023-02-14T03:45:19;25.33;;;14.52;;
9773;SDS011;4926;42.670;23.316;2023-02-14T03:47:51;21.55;;;13.98;;
9773;SDS011;4926;42.670;23.316;2023-02-14T03:50:21;22.23;;;14.95;;
9773;SDS011;4926;42.670;23.316;2023-02-14T03:52:50;22.85;;;15.35;;
9773;SDS011;4926;42.670;23.316;2023-02-14T03:55:22;22.75;;;14.77;;
9773;SDS011;4926;42.670;23.316;2023-02-14T03:57:54;23.58;;;14.00;;
9773;SDS011;4926;42.670;23.316;2023-02-14T04:00:26;25.98;;;15.27;;
9773;SDS011;4926;42.670;23.316;2023-02-14T04:02:58;23.58;;;14.23;;
9773;SDS011;4926;42.670;23.316;2023-02-14T04:05:28;23.45;;;13.55;;
9773;SDS011;4926;42.670;23.316;2023-02-14T04:07:58;21.45;;;13.55;;
9773;SDS011;4926;42.670;23.316;2023-02-14T04:10:29;22.65;;;14.02;;
9773;SDS011;4926;42.670;23.316;2023-02-14T04:12:58;19.95;;;12.73;;
9773;SDS011;4926;42.670;23.316;2023-02-14T04:15:27;21.27;;;13.82;;
9773;SDS011;4926;42.670;23.316;2023-02-14T04:17:56;21.40;;;14.18;;
9773;SDS011;4926;42.670;23.316;2023-02-14T04:20:40;18.80;;;13.45;;
9773;SDS011;4926;42.670;23.316;2023-02-14T04:23:07;21.00;;;13.80;;
9773;SDS011;4926;42.670;23.316;2023-02-14T04:25:38;21.80;;;13.55;;
9773;SDS011;4926;42.670;23.316;2023-02-14T04:28:07;22.42;;;14.57;;
9773;SDS011;4926;42.670;23.316;2023-02-14T04:30:33;20.98;;;14.63;;
9773;SDS011;4926;42.670;23.316;2023-02-14T04:33:01;20.70;;;13.93;;
9773;SDS011;4926;42.670;23.316;2023-02-14T04:35:32;21.23;;;13.80;;
9773;SDS011;4926;42.670;23.316;2023-02-14T04:37:59;18.90;;;13.77;;
9773;SDS011;4926;42.670;23.316;2023-02-14T04:40:29;19.92;;;14.68;;
9773;SDS011;4926;42.670;23.316;2023-02-14T04:42:57;18.52;;;12.77;;
9773;SDS011;4926;42.670;23.316;2023-02-14T04:45:24;19.70;;;12.85;;
9773;SDS011;4926;42.670;23.316;2023-02-14T04:47:53;20.92;;;13.88;;
9773;SDS011;4926;42.670;23.316;2023-02-14T04:50:20;20.88;;;12.98;;
9773;SDS011;4926;42.670;23.316;2023-02-14T04:52:49;17.85;;;12.05;;
9773;SDS011;4926;42.670;23.316;2023-02-14T04:55:16;24.80;;;13.77;;
9773;SDS011;4926;42.670;23.316;2023-02-14T04:57:43;22.13;;;12.60;;
9773;SDS011;4926;42.670;23.316;2023-02-14T05:00:12;18.70;;;12.65;;
9773;SDS011;4926;42.670;23.316;2023-02-14T05:02:40;22.02;;;13.75;;
9773;SDS011;4926;42.670;23.316;2023-02-14T05:05:06;18.90;;;13.10;;
9773;SDS011;4926;42.670;23.316;2023-02-14T05:07:33;19.58;;;12.50;;
9773;SDS011;4926;42.670;23.316;2023-02-14T05:10:00;20.48;;;12.10;;
9773;SDS011;4926;42.670;23.316;2023-02-14T05:12:27;17.80;;;12.10;;
9773;SDS011;4926;42.670;23.316;2023-02-14T05:14:53;16.70;;;11.77;;
9773;SDS011;4926;42.670;23.316;2023-02-14T05:17:23;19.77;;;12.00;;
9773;SDS011;4926;42.670;23.316;2023-02-14T05:19:49;15.57;;;12.18;;
9773;SDS011;4926;42.670;23.316;2023-02-14T05:22:22;20.40;;;12.93;;
9773;SDS011;4926;42.670;23.316;2023-02-14T05:24:48;21.08;;;13.13;;
9773;SDS011;4926;42.670;23.316;2023-02-14T05:27:15;18.38;;;12.13;;
9773;SDS011;4926;42.670;23.316;2023-02-14T05:29:42;23.20;;;13.52;;
9773;SDS011;4926;42.670;23.316;2023-02-14T05:32:09;18.23;;;13.02;;
9773;SDS011;4926;42.670;23.316;2023-02-14T05:34:37;20.65;;;12.48;;
9773;SDS011;4926;42.670;23.316;2023-02-14T05:37:03;19.90;;;12.27;;
9773;SDS011;4926;42.670;23.316;2023-02-14T05:39:30;20.63;;;13.20;;
9773;SDS011;4926;42.670;23.316;2023-02-14T05:41:57;18.20;;;13.05;;
9773;SDS011;4926;42.670;23.316;2023-02-14T05:44:23;19.00;;;13.52;;
9773;SDS011;4926;42.670;23.316;2023-02-14T05:46:50;26.92;;;14.63;;
9773;SDS011;4926;42.670;23.316;2023-02-14T05:49:19;23.15;;;13.32;;
9773;SDS011;4926;42.670;23.316;2023-02-14T05:51:47;17.60;;;13.27;;
9773;SDS011;4926;42.670;23.316;2023-02-14T05:54:13;22.48;;;13.73;;
9773;SDS011;4926;42.670;23.316;2023-02-14T05:56:40;24.48;;;14.10;;
9773;SDS011;4926;42.670;23.316;2023-02-14T05:59:07;20.38;;;12.70;;
9773;SDS011;4926;42.670;23.316;2023-02-14T06:01:33;21.63;;;13.40;;
9773;SDS011;4926;42.670;23.316;2023-02-14T06:04:00;22.52;;;14.20;;
9773;SDS011;4926;42.670;23.316;2023-02-14T06:06:27;20.67;;;13.65;;
9773;SDS011;4926;42.670;23.316;2023-02-14T06:08:55;24.27;;;13.85;;
9773;SDS011;4926;42.670;23.316;2023-02-14T06:11:22;20.60;;;14.05;;
9773;SDS011;4926;42.670;23.316;2023-02-14T06:13:48;21.60;;;14.52;;
9773;SDS011;4926;42.670;23.316;2023-02-14T06:16:15;24.25;;;14.68;;
9773;SDS011;4926;42.670;23.316;2023-02-14T06:18:42;24.10;;;15.15;;
9773;SDS011;4926;42.670;23.316;2023-02-14T06:21:09;21.17;;;14.40;;
9773;SDS011;4926;42.670;23.316;2023-02-14T06:23:36;24.25;;;14.88;;
9773;SDS011;4926;42.670;23.316;2023-02-14T06:26:04;20.88;;;13.90;;
9773;SDS011;4926;42.670;23.316;2023-02-14T06:28:36;22.33;;;15.32;;
9773;SDS011;4926;42.670;23.316;2023-02-14T06:31:06;20.70;;;14.73;;
9773;SDS011;4926;42.670;23.316;2023-02-14T06:33:39;22.20;;;15.73;;
9773;SDS011;4926;42.670;23.316;2023-02-14T06:36:06;22.05;;;14.38;;
9773;SDS011;4926;42.670;23.316;2023-02-14T06:38:33;26.65;;;16.17;;
9773;SDS011;4926;42.670;23.316;2023-02-14T06:41:01;20.63;;;15.50;;
9773;SDS011;4926;42.670;23.316;2023-02-14T06:43:30;24.70;;;16.27;;
9773;SDS011;4926;42.670;23.316;2023-02-14T06:45:57;23.15;;;17.23;;
9773;SDS011;4926;42.670;23.316;2023-02-14T06:48:27;25.27;;;16.35;;
9773;SDS011;4926;42.670;23.316;2023-02-14T06:50:53;22.85;;;16.08;;
9773;SDS011;4926;42.670;23.316;2023-02-14T06:53:20;20.65;;;15.15;;
9773;SDS011;4926;42.670;23.316;2023-02-14T06:55:47;24.60;;;16.20;;
9773;SDS011;4926;42.670;23.316;2023-02-14T06:58:18;22.70;;;14.93;;
9773;SDS011;4926;42.670;23.316;2023-02-14T07:00:45;21.27;;;14.43;;
9773;SDS011;4926;42.670;23.316;2023-02-14T07:03:12;19.38;;;13.80;;
9773;SDS011;4926;42.670;23.316;2023-02-14T07:05:43;17.17;;;12.50;;
9773;SDS011;4926;42.670;23.316;2023-02-14T07:08:10;21.02;;;14.57;;
9773;SDS011;4926;42.670;23.316;2023-02-14T07:10:37;19.42;;;13.73;;
9773;SDS011;4926;42.670;23.316;2023-02-14T07:13:03;23.25;;;13.40;;
9773;SDS011;4926;42.670;23.316;2023-02-14T07:15:34;22.77;;;14.38;;
9773;SDS011;4926;42.670;23.316;2023-02-14T07:18:01;19.27;;;13.63;;
9773;SDS011;4926;42.670;23.316;2023-02-14T07:20:28;18.92;;;13.20;;
9773;SDS011;4926;42.670;23.316;2023-02-14T07:23:04;20.70;;;13.23;;
9773;SDS011;4926;42.670;23.316;2023-02-14T07:25:31;20.73;;;14.20;;
9773;SDS011;4926;42.670;23.316;2023-02-14T07:27:58;20.83;;;14.45;;
9773;SDS011;4926;42.670;23.316;2023-02-14T07:30:25;21.25;;;14.52;;
9773;SDS011;4926;42.670;23.316;2023-02-14T07:32:53;25.65;;;14.45;;
9773;SDS011;4926;42.670;23.316;2023-02-14T07:35:20;22.52;;;15.10;;
9773;SDS011;4926;42.670;23.316;2023-02-14T07:37:49;22.27;;;14.90;;
9773;SDS011;4926;42.670;23.316;2023-02-14T07:40:16;22.23;;;14.05;;
9773;SDS011;4926;42.670;23.316;2023-02-14T07:42:44;20.58;;;13.40;;
9773;SDS011;4926;42.670;23.316;2023-02-14T07:45:17;19.85;;;13.82;;
9773;SDS011;4926;42.670;23.316;2023-02-14T07:47:43;21.30;;;14.50;;
9773;SDS011;4926;42.670;23.316;2023-02-14T07:50:12;21.15;;;13.43;;
9773;SDS011;4926;42.670;23.316;2023-02-14T07:52:38;25.55;;;15.60;;
9773;SDS011;4926;42.670;23.316;2023-02-14T07:55:05;23.75;;;15.32;;
9773;SDS011;4926;42.670;23.316;2023-02-14T07:57:32;19.25;;;13.35;;
9773;SDS011;4926;42.670;23.316;2023-02-14T07:59:59;28.00;;;14.95;;
9773;SDS011;4926;42.670;23.316;2023-02-14T08:02:26;24.38;;;15.68;;
9773;SDS011;4926;42.670;23.316;2023-02-14T08:04:57;23.98;;;15.50;;
9773;SDS011;4926;42.670;23.316;2023-02-14T08:07:25;23.83;;;14.95;;
9773;SDS011;4926;42.670;23.316;2023-02-14T08:09:54;24.98;;;16.45;;
9773;SDS011;4926;42.670;23.316;2023-02-14T08:12:20;23.95;;;14.95;;
9773;SDS011;4926;42.670;23.316;2023-02-14T08:15:04;30.33;;;16.73;;
9773;SDS011;4926;42.670;23.316;2023-02-14T08:18:00;26.08;;;15.88;;
9773;SDS011;4926;42.670;23.316;2023-02-14T08:20:27;25.00;;;14.82;;
9773;SDS011;4926;42.670;23.316;2023-02-14T08:22:56;22.92;;;14.65;;
9773;SDS011;4926;42.670;23.316;2023-02-14T08:25:23;24.92;;;15.85;;
9773;SDS011;4926;42.670;23.316;2023-02-14T08:27:49;21.70;;;13.60;;
9773;SDS011;4926;42.670;23.316;2023-02-14T08:30:16;23.35;;;15.05;;
9773;SDS011;4926;42.670;23.316;2023-02-14T08:32:46;23.50;;;13.65;;
9773;SDS011;4926;42.670;23.316;2023-02-14T08:35:13;23.50;;;13.35;;
9773;SDS011;4926;42.670;23.316;2023-02-14T08:37:40;20.73;;;13.52;;
9773;SDS011;4926;42.670;23.316;2023-02-14T08:40:09;25.17;;;14.70;;
9773;SDS011;4926;42.670;23.316;2023-02-14T08:42:36;26.65;;;15.93;;
9773;SDS011;4926;42.670;23.316;2023-02-14T08:45:03;20.65;;;13.85;;
9773;SDS011;4926;42.670;23.316;2023-02-14T08:47:30;20.40;;;13.15;;
9773;SDS011;4926;42.670;23.316;2023-02-14T08:50:03;19.38;;;12.73;;
9773;SDS011;4926;42.670;23.316;2023-02-14T08:52:34;17.15;;;12.15;;
9773;SDS011;4926;42.670;23.316;2023-02-14T08:55:01;19.90;;;13.52;;
9773;SDS011;4926;42.670;23.316;2023-02-14T08:57:30;17.35;;;12.13;;
9773;SDS011;4926;42.670;23.316;2023-02-14T08:59:57;21.83;;;12.77;;
9773;SDS011;4926;42.670;23.316;2023-02-14T09:02:24;22.10;;;13.32;;
9773;SDS011;4926;42.670;23.316;2023-02-14T09:04:51;19.52;;;11.80;;
9773;SDS011;4926;42.670;23.316;2023-02-14T09:07:17;25.80;;;14.68;;
9773;SDS011;4926;42.670;23.316;2023-02-14T09:09:44;22.02;;;12.60;;
9773;SDS011;4926;42.670;23.316;2023-02-14T09:12:11;27.33;;;14.15;;
9773;SDS011;4926;42.670;23.316;2023-02-14T09:14:40;23.55;;;14.13;;
9773;SDS011;4926;42.670;23.316;2023-02-14T09:17:09;23.45;;;13.65;;
9773;SDS011;4926;42.670;23.316;2023-02-14T09:19:37;22.80;;;13.05;;
9773;SDS011;4926;42.670;23.316;2023-02-14T09:22:05;20.98;;;12.95;;
9773;SDS011;4926;42.670;23.316;2023-02-14T09:24:33;20.45;;;13.05;;
9773;SDS011;4926;42.670;23.316;2023-02-14T09:27:01;23.30;;;13.82;;
9773;SDS011;4926;42.670;23.316;2023-02-14T09:29:31;20.83;;;13.85;;
9773;SDS011;4926;42.670;23.316;2023-02-14T09:32:00;23.70;;;12.10;;
9773;SDS011;4926;42.670;23.316;2023-02-14T09:34:27;22.50;;;14.07;;
9773;SDS011;4926;42.670;23.316;2023-02-14T09:37:12;17.73;;;11.20;;
9773;SDS011;4926;42.670;23.316;2023-02-14T09:39:39;20.42;;;13.20;;
9773;SDS011;4926;42.670;23.316;2023-02-14T09:42:12;27.10;;;15.02;;
9773;SDS011;4926;42.670;23.316;2023-02-14T09:44:52;24.55;;;14.40;;
9773;SDS011;4926;42.670;23.316;2023-02-14T09:47:26;24.88;;;15.45;;
9773;SDS011;4926;42.670;23.316;2023-02-14T09:50:06;27.13;;;14.70;;
9773;SDS011;4926;42.670;23.316;2023-02-14T09:52:40;26.52;;;15.43;;
9773;SDS011;4926;42.670;23.316;2023-02-14T09:55:08;28.65;;;16.38;;
9773;SDS011;4926;42.670;23.316;2023-02-14T09:57:42;27.48;;;15.40;;
9773;SDS011;4926;42.670;23.316;2023-02-14T10:00:19;20.70;;;11.45;;
9773;SDS011;4926;42.670;23.316;2023-02-14T10:03:00;26.75;;;15.55;;
9773;SDS011;4926;42.670;23.316;2023-02-14T10:05:38;26.05;;;15.95;;
9773;SDS011;4926;42.670;23.316;2023-02-14T10:08:17;22.30;;;14.05;;
9773;SDS011;4926;42.670;23.316;2023-02-14T10:10:58;24.42;;;14.00;;
9773;SDS011;4926;42.670;23.316;2023-02-14T10:13:31;21.02;;;12.93;;
9773;SDS011;4926;42.670;23.316;2023-02-14T10:16:06;24.60;;;12.90;;
9773;SDS011;4926;42.670;23.316;2023-02-14T10:18:39;22.20;;;13.77;;
9773;SDS011;4926;42.670;23.316;2023-02-14T10:21:10;23.45;;;13.82;;
9773;SDS011;4926;42.670;23.316;2023-02-14T10:23:45;23.85;;;14.48;;
9773;SDS011;4926;42.670;23.316;2023-02-14T10:26:16;19.77;;;12.68;;
9773;SDS011;4926;42.670;23.316;2023-02-14T10:28:51;14.43;;;9.55;;
9773;SDS011;4926;42.670;23.316;2023-02-14T10:31:19;18.92;;;12.27;;
9773;SDS011;4926;42.670;23.316;2023-02-14T10:33:53;21.63;;;13.10;;
9773;SDS011;4926;42.670;23.316;2023-02-14T10:36:25;20.65;;;12.50;;
9773;SDS011;4926;42.670;23.316;2023-02-14T10:39:05;22.90;;;14.05;;
9773;SDS011;4926;42.670;23.316;2023-02-14T10:41:46;20.67;;;12.25;;
9773;SDS011;4926;42.670;23.316;2023-02-14T10:44:24;20.27;;;11.70;;
9773;SDS011;4926;42.670;23.316;2023-02-14T10:47:02;25.02;;;12.80;;
9773;SDS011;4926;42.670;23.316;2023-02-14T10:49:38;17.83;;;12.13;;
9773;SDS011;4926;42.670;23.316;2023-02-14T10:52:14;16.00;;;11.05;;
9773;SDS011;4926;42.670;23.316;2023-02-14T10:54:51;16.52;;;11.48;;
9773;SDS011;4926;42.670;23.316;2023-02-14T10:57:24;17.90;;;12.60;;
9773;SDS011;4926;42.670;23.316;2023-02-14T10:59:55;17.67;;;11.48;;
9773;SDS011;4926;42.670;23.316;2023-02-14T11:02:26;19.48;;;12.38;;
9773;SDS011;4926;42.670;23.316;2023-02-14T11:04:59;20.58;;;13.63;;
9773;SDS011;4926;42.670;23.316;2023-02-14T11:07:30;16.70;;;11.88;;
9773;SDS011;4926;42.670;23.316;2023-02-14T11:09:57;16.85;;;11.40;;
9773;SDS011;4926;42.670;23.316;2023-02-14T11:12:32;20.35;;;12.07;;
9773;SDS011;4926;42.670;23.316;2023-02-14T11:15:17;17.85;;;12.02;;
9773;SDS011;4926;42.670;23.316;2023-02-14T11:17:47;17.75;;;11.43;;
9773;SDS011;4926;42.670;23.316;2023-02-14T11:20:21;21.23;;;13.00;;
9773;SDS011;4926;42.670;23.316;2023-02-14T11:22:50;18.52;;;11.30;;
9773;SDS011;4926;42.670;23.316;2023-02-14T11:25:23;18.08;;;10.35;;
9773;SDS011;4926;42.670;23.316;2023-02-14T11:27:54;15.38;;;11.13;;
9773;SDS011;4926;42.670;23.316;2023-02-14T11:30:32;12.02;;;6.57;;
9773;SDS011;4926;42.670;23.316;2023-02-14T11:33:01;15.10;;;10.68;;
9773;SDS011;4926;42.670;23.316;2023-02-14T11:35:31;17.65;;;10.60;;
9773;SDS011;4926;42.670;23.316;2023-02-14T11:37:59;14.02;;;10.27;;
9773;SDS011;4926;42.670;23.316;2023-02-14T11:40:28;16.20;;;10.52;;
9773;SDS011;4926;42.670;23.316;2023-02-14T11:43:17;15.10;;;9.73;;
9773;SDS011;4926;42.670;23.316;2023-02-14T11:46:03;16.40;;;9.80;;
9773;SDS011;4926;42.670;23.316;2023-02-14T11:48:31;15.13;;;10.48;;
9773;SDS011;4926;42.670;23.316;2023-02-14T11:51:01;14.50;;;9.10;;
9773;SDS011;4926;42.670;23.316;2023-02-14T11:53:33;13.10;;;9.90;;
9773;SDS011;4926;42.670;23.316;2023-02-14T11:56:08;12.02;;;8.48;;
9773;SDS011;4926;42.670;23.316;2023-02-14T11:58:36;17.35;;;9.05;;
9773;SDS011;4926;42.670;23.316;2023-02-14T12:01:05;13.93;;;8.55;;
9773;SDS011;4926;42.670;23.316;2023-02-14T12:03:36;12.57;;;8.63;;
9773;SDS011;4926;42.670;23.316;2023-02-14T12:06:12;14.00;;;8.75;;
9773;SDS011;4926;42.670;23.316;2023-02-14T12:08:49;13.15;;;8.93;;
9773;SDS011;4926;42.670;23.316;2023-02-14T12:11:19;14.45;;;9.38;;
9773;SDS011;4926;42.670;23.316;2023-02-14T12:13:50;14.98;;;9.27;;
9773;SDS011;4926;42.670;23.316;2023-02-14T12:16:22;10.05;;;8.00;;
9773;SDS011;4926;42.670;23.316;2023-02-14T12:18:55;14.00;;;8.70;;
9773;SDS011;4926;42.670;23.316;2023-02-14T12:21:30;11.90;;;8.10;;
9773;SDS011;4926;42.670;23.316;2023-02-14T12:24:17;12.52;;;8.13;;
9773;SDS011;4926;42.670;23.316;2023-02-14T12:26:53;12.60;;;8.15;;
9773;SDS011;4926;42.670;23.316;2023-02-14T12:29:29;14.55;;;9.23;;
9773;SDS011;4926;42.670;23.316;2023-02-14T12:32:00;11.38;;;7.90;;
9773;SDS011;4926;42.670;23.316;2023-02-14T12:34:32;11.05;;;7.93;;
9773;SDS011;4926;42.670;23.316;2023-02-14T12:37:09;13.93;;;9.30;;
9773;SDS011;4926;42.670;23.316;2023-02-14T12:39:45;12.55;;;9.48;;
9773;SDS011;4926;42.670;23.316;2023-02-14T12:42:27;12.25;;;8.15;;
9773;SDS011;4926;42.670;23.316;2023-02-14T12:45:05;11.05;;;7.35;;
9773;SDS011;4926;42.670;23.316;2023-02-14T12:47:42;11.93;;;7.47;;
9773;SDS011;4926;42.670;23.316;2023-02-14T12:50:22;12.98;;;8.98;;
9773;SDS011;4926;42.670;23.316;2023-02-14T12:53:19;15.27;;;8.88;;
9773;SDS011;4926;42.670;23.316;2023-02-14T12:55:58;11.48;;;8.32;;
9773;SDS011;4926;42.670;23.316;2023-02-14T12:58:40;12.90;;;8.85;;
9773;SDS011;4926;42.670;23.316;2023-02-14T13:01:31;14.40;;;7.63;;
9773;SDS011;4926;42.670;23.316;2023-02-14T13:04:25;15.02;;;9.65;;
9773;SDS011;4926;42.670;23.316;2023-02-14T13:07:16;12.95;;;9.65;;
9773;SDS011;4926;42.670;23.316;2023-02-14T13:09:54;14.50;;;10.13;;
9773;SDS011;4926;42.670;23.316;2023-02-14T13:12:27;12.95;;;9.43;;
9773;SDS011;4926;42.670;23.316;2023-02-14T13:15:11;14.38;;;10.38;;
9773;SDS011;4926;42.670;23.316;2023-02-14T13:17:46;12.18;;;8.77;;
9773;SDS011;4926;42.670;23.316;2023-02-14T13:20:22;14.13;;;10.43;;
9773;SDS011;4926;42.670;23.316;2023-02-14T13:23:11;13.30;;;10.15;;
9773;SDS011;4926;42.670;23.316;2023-02-14T13:25:42;14.45;;;11.30;;
9773;SDS011;4926;42.670;23.316;2023-02-14T13:28:14;16.30;;;10.57;;
9773;SDS011;4926;42.670;23.316;2023-02-14T13:30:42;17.33;;;10.73;;
9773;SDS011;4926;42.670;23.316;2023-02-14T13:33:13;14.85;;;10.48;;
9773;SDS011;4926;42.670;23.316;2023-02-14T13:35:52;14.88;;;10.75;;
9773;SDS011;4926;42.670;23.316;2023-02-14T13:38:21;13.95;;;9.48;;
9773;SDS011;4926;42.670;23.316;2023-02-14T13:40:52;16.83;;;10.02;;
9773;SDS011;4926;42.670;23.316;2023-02-14T13:43:43;14.95;;;10.27;;
9773;SDS011;4926;42.670;23.316;2023-02-14T13:46:46;14.60;;;10.27;;
9773;SDS011;4926;42.670;23.316;2023-02-14T13:49:23;17.80;;;10.15;;
9773;SDS011;4926;42.670;23.316;2023-02-14T13:51:56;14.48;;;10.48;;
9773;SDS011;4926;42.670;23.316;2023-02-14T13:54:29;16.08;;;11.25;;
9773;SDS011;4926;42.670;23.316;2023-02-14T13:57:22;12.57;;;7.82;;
9773;SDS011;4926;42.670;23.316;2023-02-14T14:00:20;11.77;;;9.43;;
9773;SDS011;4926;42.670;23.316;2023-02-14T14:03:04;16.95;;;10.57;;
9773;SDS011;4926;42.670;23.316;2023-02-14T14:05:56;12.82;;;10.05;;
9773;SDS011;4926;42.670;23.316;2023-02-14T14:14:36;14.43;;;9.80;;
9773;SDS011;4926;42.670;23.316;2023-02-14T14:17:20;15.27;;;10.57;;
9773;SDS011;4926;42.670;23.316;2023-02-14T14:19:51;13.55;;;8.98;;
9773;SDS011;4926;42.670;23.316;2023-02-14T14:22:22;13.20;;;10.32;;
9773;SDS011;4926;42.670;23.316;2023-02-14T14:24:54;15.48;;;10.82;;
9773;SDS011;4926;42.670;23.316;2023-02-14T14:27:33;13.23;;;9.77;;
9773;SDS011;4926;42.670;23.316;2023-02-14T14:30:02;16.52;;;10.23;;
9773;SDS011;4926;42.670;23.316;2023-02-14T14:32:32;14.73;;;10.35;;
9773;SDS011;4926;42.670;23.316;2023-02-14T14:35:00;21.40;;;11.40;;
9773;SDS011;4926;42.670;23.316;2023-02-14T14:37:29;13.20;;;9.65;;
9773;SDS011;4926;42.670;23.316;2023-02-14T14:39:58;15.57;;;11.30;;
9773;SDS011;4926;42.670;23.316;2023-02-14T14:42:26;17.92;;;10.63;;
9773;SDS011;4926;42.670;23.316;2023-02-14T14:44:58;16.50;;;10.75;;
9773;SDS011;4926;42.670;23.316;2023-02-14T14:47:30;14.30;;;10.35;;
9773;SDS011;4926;42.670;23.316;2023-02-14T14:50:03;13.80;;;10.63;;
9773;SDS011;4926;42.670;23.316;2023-02-14T14:52:34;14.23;;;10.80;;
9773;SDS011;4926;42.670;23.316;2023-02-14T14:55:04;14.23;;;10.23;;
9773;SDS011;4926;42.670;23.316;2023-02-14T14:57:33;13.70;;;9.50;;
9773;SDS011;4926;42.670;23.316;2023-02-14T15:02:58;14.63;;;10.57;;
9773;SDS011;4926;42.670;23.316;2023-02-14T15:05:28;13.95;;;9.57;;
9773;SDS011;4926;42.670;23.316;2023-02-14T15:07:57;17.98;;;10.90;;
9773;SDS011;4926;42.670;23.316;2023-02-14T15:10:39;16.20;;;11.60;;
9773;SDS011;4926;42.670;23.316;2023-02-14T15:13:08;15.55;;;10.85;;
9773;SDS011;4926;42.670;23.316;2023-02-14T15:15:57;16.00;;;10.95;;
9773;SDS011;4926;42.670;23.316;2023-02-14T15:18:26;15.48;;;10.27;;
9773;SDS011;4926;42.670;23.316;2023-02-14T15:20:53;16.10;;;10.77;;
9773;SDS011;4926;42.670;23.316;2023-02-14T15:23:20;14.18;;;10.57;;